^^

Meteo Aereoporti Centro-Italia

 

 
LIRZ - Perugia S.Egidio (208 m.)
Dati ricevuti: 21/01/2018 22:50
Dati non aggiornati
Sereno
Sereno
 Vento da NNE
Vento: NNE 24 km/h
TEMPERATURA: 7°C
Raffreddamento da Vento: 3°C
P.to di Rugiada: 1°C
Umidità: 66%
Pressione: 1013 hPa
Condizioni generali: Sereno
Visibilità: oltre 10 km
2018/01/21 21:50 LIRZ 212150Z 02013KT CAVOK 07/01 Q1013
 
LIPY - Ancona Falconara (12 m.)
Dati ricevuti: 22/01/2018 03:50
Sereno
Sereno
 Vento da SSE
Vento: SSE 7 km/h
TEMPERATURA: 1°C
Raffreddamento da Vento: -2°C
P.to di Rugiada: 1°C
Umidità: 100%
Pressione: 1015 hPa
Condizioni generali: Sereno
Visibilità: oltre 10 km
2018/01/22 02:50 LIPY 220250Z 16004KT CAVOK 01/01 Q1015
 
LIPR - Rimini Miramare (12 m.)
Dati ricevuti: 22/01/2018 04:45
Sereno
Sereno
 Vento da S
Vento: S 4 km/h
TEMPERATURA: 1°C
P.to di Rugiada: 1°C
Umidità: 100%
Pressione: 1015 hPa
Condizioni generali: Sereno
Visibilità: oltre 10 km
2018/01/22 03:45 LIPR 220345Z 18002KT CAVOK 01/01 Q1015
 
LIRF - Roma Fiumicino (2 m.)
Dati ricevuti: 22/01/2018 04:50
Sereno
Sereno
 Vento da NE
Vento: NE 9 km/h
TEMPERATURA: 5°C
Raffreddamento da Vento: 3°C
P.to di Rugiada: 1°C
Umidità: 76%
Pressione: 1013 hPa
Condizioni generali: Sereno
Visibilità: oltre 10 km
2018/01/22 03:50 LIRF 220350Z 04005KT CAVOK 05/01 Q1013 NOSIG
 
LIRA - Roma Ciampino (129 m.)
Dati ricevuti: 22/01/2018 04:50
Sereno
Sereno
 Vento da NE
Vento: NE 7 km/h
TEMPERATURA: 6°C
Raffreddamento da Vento: 4°C
P.to di Rugiada: 2°C
Umidità: 76%
Pressione: 1012 hPa
Condizioni generali: Sereno
Visibilità: oltre 10 km
2018/01/22 03:50 LIRA 220350Z 05004KT CAVOK 06/02 Q1012
 
LIRU - Roma Urbe (17 m.)
Dati ricevuti: 21/01/2018 16:50
Dati non aggiornati
Sereno
Sereno
 Vento da N
Vento: N 11 km/h
TEMPERATURA: 16°C
P.to di Rugiada: 7°C
Umidità: 55%
Pressione: 1006 hPa
Condizioni generali: Sereno
Visibilità: oltre 10 km
2018/01/21 15:50 LIRU 211550Z 36006KT CAVOK 16/07 Q1006
 
LIVF - Frontone (570 m.)
Dati ricevuti: 21/01/2018 18:55
Dati non aggiornati
Sereno
Sereno
 Vento da W
Vento: W 11 km/h
TEMPERATURA: 6°C
Raffreddamento da Vento: 4°C
P.to di Rugiada: 3°C
Umidità: 81%
Pressione: 1008 hPa
Condizioni generali: Sereno
Visibilità: oltre 10 km
2018/01/21 17:55 LIVF 211755Z 27006KT CAVOK 06/03 Q1008 RMK SKC MON LIB VAL FOSCHIA SKC SUP DIM VIS MIN 9999
 
LIRQ - Firenze Peretola (40 m.)
Dati ricevuti: 22/01/2018 04:50
Sereno
Sereno
 Vento da SSW
Vento: SSW 6 km/h
TEMPERATURA: 3°C
P.to di Rugiada: 1°C
Umidità: 87%
Pressione: 1014 hPa
Condizioni generali: Sereno
Visibilità: oltre 10 km
2018/01/22 03:50 LIRQ 220350Z 21003KT CAVOK 03/01 Q1014
 
LIBP - Pescara (10 m.)
Dati ricevuti: 22/01/2018 03:50
Molto nuvoloso
Molto nuvoloso
 Vento da direzione variabile
Vento: direzione variabile 4 km/h
TEMPERATURA: 4°C
P.to di Rugiada: 2°C
Umidità: 87%
Pressione: 1016 hPa
Nuvole: Molto nuvoloso
Visibilità: 6 km
Dettagli Nuvole: Qualche nuvola 1006 m
Molto nuvoloso 1859 m
2018/01/22 02:50 LIBP 220250Z AUTO VRB02KT 6000 FEW033/// BKN061/// 04/02 Q1016
 
LIRV - Viterbo (300 m.)
Dati ricevuti: 20/01/2018 18:55
Dati non aggiornati
Sereno
Sereno
 Vento da direzione variabile
Vento: direzione variabile 0 km/h
TEMPERATURA: 9°C
P.to di Rugiada: 5°C
Umidità: 76%
Pressione: 1011 hPa
Condizioni generali: Sereno
Visibilità: oltre 10 km
2018/01/20 17:55 LIRV 201755Z /////KT CAVOK 09/05 Q1011
 
LIQN - Rieti (389 m.)
Dati ricevuti: 21/01/2018 17:50
Dati non aggiornati
Sereno
Sereno
 Vento da NW
Vento: NW 7 km/h
TEMPERATURA: 10°C
Raffreddamento da Vento: 9°C
P.to di Rugiada: 5°C
Umidità: 71%
Pressione: 1006 hPa
Condizioni generali: Sereno
Visibilità: oltre 10 km
2018/01/21 16:50 LIQN 211650Z 31004KT CAVOK 10/05 Q1006
 
LIRG - Guidonia -RM- (88 m.)
Dati ricevuti: 19/01/2018 18:55
Dati non aggiornati
Molto nuvoloso
Molto nuvoloso
 Vento da SE
Vento: SE 11 km/h
TEMPERATURA: 10°C
Raffreddamento da Vento: 8°C
P.to di Rugiada: 8°C
Umidità: 88%
Pressione: 1013 hPa
Nuvole: Molto nuvoloso
Visibilità: 10 km
Dettagli Nuvole: Molto nuvoloso 914 m
2018/01/19 17:55 LIRG 191755Z 13006KT 9999 BKN030 10/08 Q1013
 
LIRK - Terminillo -RI-(1874 m.)
Dati ricevuti: 22/01/2018 03:55

 Vento da direzione variabile
Vento: direzione variabile 0 km/h
2018/01/22 02:55 LIRK 220255Z AUTO /////KT //// ///// Q////
 
LIPK - Forlì (27 m.)
Dati ricevuti: 19/01/2018 17:50
Dati non aggiornati
Qualche nuvola
Qualche nuvola
 Vento da direzione variabile
Vento: direzione variabile 4 km/h
TEMPERATURA: 9°C
P.to di Rugiada: 0°C
Umidità: 54%
Pressione: 1009 hPa
Nuvole: Qualche nuvola
Visibilità: 10 km
Dettagli Nuvole: Qualche nuvola 914 m
2018/01/19 16:50 LIPK 191650Z VRB02KT 9999 FEW030 09/00 Q1009
 
LIRS - Grosseto (5 m.)
Dati ricevuti: 22/01/2018 03:55
Sereno
Sereno
 Vento da ENE
Vento: ENE 7 km/h
TEMPERATURA: 5°C
Raffreddamento da Vento: 3°C
P.to di Rugiada: 0°C
Umidità: 70%
Pressione: 1013 hPa
Condizioni generali: Sereno
Visibilità: oltre 10 km
2018/01/22 02:55 LIRS 220255Z 06004KT CAVOK 05/00 Q1013
 
LIRP - Pisa S.Giusto (2 m.)
Dati ricevuti: 22/01/2018 04:45
Sereno
Sereno
 Vento da ESE
Vento: ESE 17 km/h
TEMPERATURA: 7°C
Raffreddamento da Vento: 4°C
P.to di Rugiada: 1°C
Umidità: 66%
Pressione: 1013 hPa
Condizioni generali: Sereno
Visibilità: oltre 10 km
2018/01/22 03:45 LIRP 220345Z 11009KT CAVOK 07/01 Q1013 NOSIG